createdAt,value
2023-02-02T00:00:41.315Z,17.13
2023-02-02T00:03:03.660Z,19.73
2023-02-02T00:05:26.194Z,23.57
2023-02-02T00:07:48.465Z,22.07
2023-02-02T00:10:10.996Z,18.00
2023-02-02T00:12:33.198Z,19.50
2023-02-02T00:14:55.449Z,13.07
2023-02-02T00:17:17.650Z,21.53
2023-02-02T00:19:39.844Z,13.47
2023-02-02T00:22:02.118Z,22.07
2023-02-02T00:24:24.829Z,14.57
2023-02-02T00:26:48.737Z,17.03
2023-02-02T00:29:15.797Z,19.00
2023-02-02T00:31:38.005Z,20.47
2023-02-02T00:34:00.236Z,15.53
2023-02-02T00:36:24.346Z,20.93
2023-02-02T00:38:46.966Z,16.60
2023-02-02T00:41:09.259Z,22.10
2023-02-02T00:43:31.472Z,18.90
2023-02-02T00:45:54.375Z,15.80
2023-02-02T00:48:17.352Z,19.60
2023-02-02T00:50:39.672Z,23.43
2023-02-02T00:53:01.866Z,21.13
2023-02-02T00:55:24.400Z,25.70
2023-02-02T00:57:47.002Z,19.67
2023-02-02T01:00:10.180Z,20.87
2023-02-02T01:02:32.426Z,25.03
2023-02-02T01:04:54.737Z,15.83
2023-02-02T01:07:16.950Z,25.43
2023-02-02T01:09:39.225Z,21.87
2023-02-02T01:12:01.374Z,18.47
2023-02-02T01:14:23.885Z,19.77
2023-02-02T01:16:46.125Z,25.33
2023-02-02T01:19:08.960Z,19.63
2023-02-02T01:21:31.178Z,15.13
2023-02-02T01:23:53.455Z,23.70
2023-02-02T01:26:16.694Z,18.93
2023-02-02T01:28:39.969Z,18.93
2023-02-02T01:31:06.825Z,21.47
2023-02-02T01:33:29.101Z,19.17
2023-02-02T01:35:55.337Z,20.87
2023-02-02T01:38:19.295Z,20.17
2023-02-02T01:40:47.606Z,18.70
2023-02-02T01:43:20.839Z,12.43
2023-02-02T01:45:43.161Z,18.40
2023-02-02T01:48:06.174Z,24.90
2023-02-02T01:50:30.412Z,19.93
2023-02-02T01:52:54.029Z,13.23
2023-02-02T01:55:17.852Z,18.00
2023-02-02T01:57:46.104Z,21.43
2023-02-02T02:00:13.438Z,19.20
2023-02-02T02:02:36.021Z,15.33
2023-02-02T02:05:00.093Z,15.77
2023-02-02T02:07:22.771Z,18.07
2023-02-02T02:09:45.019Z,22.07
2023-02-02T02:12:15.619Z,15.50
2023-02-02T02:14:57.048Z,15.77
2023-02-02T02:17:31.914Z,20.97
2023-02-02T02:20:17.580Z,13.80
2023-02-02T02:23:12.674Z,18.87
2023-02-02T02:26:02.621Z,18.03
2023-02-02T02:28:34.285Z,12.83
2023-02-02T02:31:20.906Z,15.87
2023-02-02T02:34:02.238Z,15.73
2023-02-02T02:36:30.642Z,18.43
2023-02-02T02:38:57.809Z,16.73
2023-02-02T02:41:21.827Z,21.57
2023-02-02T02:43:46.779Z,16.60
2023-02-02T02:46:09.750Z,17.60
2023-02-02T02:48:32.237Z,17.60
2023-02-02T02:50:54.428Z,18.87
2023-02-02T02:53:19.006Z,25.30
2023-02-02T02:55:50.097Z,14.83
2023-02-02T02:58:31.680Z,13.70
2023-02-02T03:00:54.010Z,17.37
2023-02-02T03:03:34.671Z,16.97
2023-02-02T03:06:15.776Z,16.67
2023-02-02T03:08:37.999Z,15.23
2023-02-02T03:11:02.449Z,12.63
2023-02-02T03:13:25.165Z,21.40
2023-02-02T03:15:47.633Z,22.77
2023-02-02T03:18:10.025Z,14.57
2023-02-02T03:20:32.277Z,16.37
2023-02-02T03:22:54.542Z,17.57
2023-02-02T03:25:16.841Z,19.37
2023-02-02T03:27:39.839Z,19.77
2023-02-02T03:30:02.153Z,20.03
2023-02-02T03:32:24.348Z,14.27
2023-02-02T03:34:46.626Z,16.50
2023-02-02T03:37:09.038Z,20.13
2023-02-02T03:39:31.228Z,17.97
2023-02-02T03:41:53.426Z,14.33
2023-02-02T03:44:15.745Z,17.20
2023-02-02T03:46:38.054Z,17.07
2023-02-02T03:49:00.464Z,14.30
2023-02-02T03:51:22.702Z,16.57
2023-02-02T03:53:44.960Z,16.13
2023-02-02T03:56:07.738Z,17.33
2023-02-02T03:58:30.122Z,21.07
2023-02-02T04:00:52.474Z,22.30
2023-02-02T04:03:14.681Z,19.07
2023-02-02T04:05:36.905Z,20.60
2023-02-02T04:07:59.188Z,18.10
2023-02-02T04:10:21.389Z,26.17
2023-02-02T04:12:43.793Z,18.87
2023-02-02T04:15:06.437Z,18.37
2023-02-02T04:17:28.678Z,22.73
2023-02-02T04:19:56.860Z,26.07
2023-02-02T04:22:19.083Z,15.73
2023-02-02T04:24:41.259Z,18.37
2023-02-02T04:27:03.555Z,27.23
2023-02-02T04:29:26.319Z,22.23
2023-02-02T04:31:48.564Z,21.90
2023-02-02T04:34:10.854Z,16.57
2023-02-02T04:36:33.203Z,25.17
2023-02-02T04:38:55.959Z,17.93
2023-02-02T04:41:21.175Z,17.67
2023-02-02T04:43:43.449Z,21.43
2023-02-02T04:46:05.865Z,15.97
2023-02-02T04:48:28.131Z,15.17
2023-02-02T04:50:50.467Z,18.50
2023-02-02T04:53:12.706Z,19.33
2023-02-02T04:55:38.849Z,15.83
2023-02-02T04:58:01.112Z,20.13
2023-02-02T05:00:23.536Z,18.00
2023-02-02T05:02:45.776Z,11.63
2023-02-02T05:05:10.167Z,21.07
2023-02-02T05:07:32.517Z,17.53
2023-02-02T05:09:54.693Z,15.67
2023-02-02T05:12:17.161Z,20.63
2023-02-02T05:14:39.371Z,18.43
2023-02-02T05:17:01.674Z,14.57
2023-02-02T05:19:23.949Z,21.00
2023-02-02T05:21:50.613Z,14.23
2023-02-02T05:24:13.389Z,20.00
2023-02-02T05:26:35.654Z,20.57
2023-02-02T05:28:58.009Z,12.63
2023-02-02T05:31:20.611Z,17.77
2023-02-02T05:33:43.363Z,13.33
2023-02-02T05:36:05.982Z,20.50
2023-02-02T05:38:28.158Z,15.07
2023-02-02T05:40:50.369Z,18.57
2023-02-02T05:43:12.595Z,14.27
2023-02-02T05:45:41.402Z,12.87
2023-02-02T05:48:03.592Z,11.60
2023-02-02T05:50:25.878Z,14.70
2023-02-02T05:52:57.540Z,17.00
2023-02-02T05:55:20.050Z,20.17
2023-02-02T05:57:42.313Z,14.33
2023-02-02T06:00:05.096Z,20.60
2023-02-02T06:02:34.316Z,16.67
2023-02-02T06:04:56.890Z,17.20
2023-02-02T06:07:19.169Z,14.53
2023-02-02T06:09:41.374Z,16.10
2023-02-02T06:12:03.808Z,18.10
2023-02-02T06:14:26.045Z,16.27
2023-02-02T06:16:48.223Z,9.33
2023-02-02T06:19:10.490Z,14.73
2023-02-02T06:21:32.997Z,16.80
2023-02-02T06:23:55.261Z,15.33
2023-02-02T06:26:17.887Z,16.73
2023-02-02T06:28:40.159Z,13.43
2023-02-02T06:31:06.418Z,14.30
2023-02-02T06:33:28.771Z,13.43
2023-02-02T06:35:50.967Z,11.77
2023-02-02T06:38:13.175Z,11.73
2023-02-02T06:40:35.505Z,15.80
2023-02-02T06:43:04.261Z,16.97
2023-02-02T06:45:26.821Z,15.87
2023-02-02T06:47:49.197Z,15.13
2023-02-02T06:50:12.241Z,13.33
2023-02-02T06:52:34.470Z,21.37
2023-02-02T06:54:56.812Z,22.97
2023-02-02T06:57:19.057Z,11.73
2023-02-02T06:59:41.650Z,19.73
2023-02-02T07:02:03.864Z,14.17
2023-02-02T07:04:26.066Z,14.17
2023-02-02T07:06:48.479Z,11.60
2023-02-02T07:09:14.036Z,16.93
2023-02-02T07:11:44.427Z,14.90
2023-02-02T07:14:08.362Z,13.13
2023-02-02T07:16:31.115Z,15.37
2023-02-02T07:18:53.558Z,10.97
2023-02-02T07:21:20.139Z,17.63
2023-02-02T07:23:42.764Z,18.77
2023-02-02T07:26:06.503Z,12.53
2023-02-02T07:28:29.297Z,16.77
2023-02-02T07:30:51.781Z,14.20
2023-02-02T07:33:17.582Z,11.20
2023-02-02T07:35:43.786Z,17.93
2023-02-02T07:38:09.365Z,17.87
2023-02-02T07:40:34.192Z,16.10
2023-02-02T07:43:01.647Z,18.00
2023-02-02T07:45:26.800Z,15.20
2023-02-02T07:47:58.495Z,19.63
2023-02-02T07:50:20.822Z,17.47
2023-02-02T07:52:43.282Z,16.20
2023-02-02T07:55:14.432Z,15.23
2023-02-02T07:57:39.885Z,11.43
2023-02-02T08:00:02.272Z,13.20
2023-02-02T08:02:37.705Z,11.80
2023-02-02T08:05:00.091Z,13.80
2023-02-02T08:07:24.640Z,11.77
2023-02-02T08:09:55.579Z,14.30
2023-02-02T08:12:18.307Z,15.87
2023-02-02T08:14:40.663Z,11.83
2023-02-02T08:17:05.852Z,16.20
2023-02-02T08:19:28.203Z,15.73
2023-02-02T08:21:50.634Z,15.67
2023-02-02T08:24:15.952Z,16.07
2023-02-02T08:26:38.222Z,8.87
2023-02-02T08:29:03.871Z,16.33
2023-02-02T08:31:28.337Z,15.73
2023-02-02T08:33:51.527Z,18.33
2023-02-02T08:36:18.110Z,17.33
2023-02-02T08:38:40.389Z,15.33
2023-02-02T08:41:06.361Z,15.90
2023-02-02T08:43:29.649Z,14.70
2023-02-02T08:46:03.435Z,17.67
2023-02-02T08:48:26.877Z,13.53
2023-02-02T08:50:56.245Z,15.13
2023-02-02T08:53:18.461Z,11.87
2023-02-02T08:55:40.655Z,16.90
2023-02-02T08:58:02.915Z,14.93
2023-02-02T09:00:25.576Z,18.13
2023-02-02T09:02:51.122Z,20.17
2023-02-02T09:05:13.366Z,12.97
2023-02-02T09:07:35.793Z,12.20
2023-02-02T09:09:58.387Z,13.13
2023-02-02T09:12:20.759Z,9.37
2023-02-02T09:14:43.009Z,15.50
2023-02-02T09:17:05.330Z,13.70
2023-02-02T09:19:27.741Z,14.33
2023-02-02T09:21:50.405Z,13.97
2023-02-02T09:24:13.670Z,17.73
2023-02-02T09:26:35.969Z,11.87
2023-02-02T09:29:02.404Z,12.27
2023-02-02T09:31:25.500Z,10.57
2023-02-02T09:33:48.295Z,16.70
2023-02-02T09:36:12.078Z,17.10
2023-02-02T09:38:34.438Z,11.97
2023-02-02T09:40:57.741Z,12.67
2023-02-02T09:43:22.760Z,12.27
2023-02-02T09:45:48.517Z,10.60
2023-02-02T09:48:40.181Z,15.97
2023-02-02T09:51:06.805Z,12.03
2023-02-02T09:53:55.174Z,12.53
2023-02-02T09:56:30.852Z,13.07
2023-02-02T09:58:55.449Z,19.97
2023-02-02T10:01:17.728Z,12.67
2023-02-02T10:03:51.071Z,12.23
2023-02-02T10:06:32.370Z,17.90
2023-02-02T10:08:56.394Z,11.83
2023-02-02T10:11:24.687Z,9.07
2023-02-02T10:13:48.885Z,16.67
2023-02-02T10:16:17.528Z,18.33
2023-02-02T10:18:49.661Z,14.43
2023-02-02T10:21:28.273Z,7.97
2023-02-02T10:23:50.512Z,11.00
2023-02-02T10:26:23.370Z,12.23
2023-02-02T10:29:06.030Z,14.90
2023-02-02T10:31:45.036Z,14.30
2023-02-02T10:34:18.690Z,8.13
2023-02-02T10:36:59.925Z,9.00
2023-02-02T10:39:54.698Z,10.77
2023-02-02T10:42:26.458Z,12.73
2023-02-02T10:44:51.591Z,9.93
2023-02-02T10:47:16.386Z,10.67
2023-02-02T10:49:39.870Z,11.37
2023-02-02T10:52:05.996Z,12.50
2023-02-02T10:54:56.613Z,13.07
2023-02-02T10:57:24.424Z,9.70
2023-02-02T11:00:21.599Z,14.63
2023-02-02T11:02:45.489Z,11.53
2023-02-02T11:05:30.997Z,7.97
2023-02-02T11:07:54.499Z,13.47
2023-02-02T11:10:16.893Z,8.93
2023-02-02T11:12:43.130Z,11.37
2023-02-02T11:15:07.827Z,13.70
2023-02-02T11:17:30.462Z,10.37
2023-02-02T11:19:55.754Z,10.47
2023-02-02T11:22:38.480Z,10.73
2023-02-02T11:25:05.987Z,11.10
2023-02-02T11:27:30.325Z,9.57
2023-02-02T11:29:54.709Z,9.00
2023-02-02T11:32:21.150Z,14.07
2023-02-02T11:34:43.482Z,9.83
2023-02-02T11:37:22.100Z,10.50
2023-02-02T11:39:45.348Z,11.10
2023-02-02T11:42:16.322Z,13.30
2023-02-02T11:44:39.648Z,12.77
2023-02-02T11:47:03.280Z,12.30
2023-02-02T11:49:28.491Z,10.03
2023-02-02T11:52:00.788Z,10.03
2023-02-02T11:54:33.416Z,8.27
2023-02-02T11:56:59.906Z,10.23
2023-02-02T11:59:30.379Z,12.97
2023-02-02T12:02:13.500Z,14.07
2023-02-02T12:04:44.695Z,7.93
2023-02-02T12:07:26.033Z,10.30
2023-02-02T12:09:48.620Z,9.83
2023-02-02T12:12:21.043Z,9.30
2023-02-02T12:15:00.703Z,12.87
2023-02-02T12:17:31.715Z,11.47
2023-02-02T12:20:03.956Z,11.03
2023-02-02T12:22:38.744Z,12.57
2023-02-02T12:25:11.636Z,5.33
2023-02-02T12:27:37.023Z,12.63
2023-02-02T12:30:02.194Z,10.40
2023-02-02T12:32:27.842Z,8.17
2023-02-02T12:34:58.401Z,15.43
2023-02-02T12:37:50.231Z,9.73
2023-02-02T12:40:25.226Z,12.53
2023-02-02T12:43:04.495Z,9.63
2023-02-02T12:45:28.342Z,8.67
2023-02-02T12:47:53.440Z,9.20
2023-02-02T12:50:15.983Z,6.07
2023-02-02T12:52:41.485Z,14.23
2023-02-02T12:55:16.069Z,7.13
2023-02-02T12:57:51.290Z,7.80
2023-02-02T13:00:15.900Z,9.93
2023-02-02T13:02:56.858Z,11.43
2023-02-02T13:05:49.770Z,9.00
2023-02-02T13:08:32.201Z,9.43
2023-02-02T13:10:58.199Z,10.10
2023-02-02T13:13:24.565Z,6.77
2023-02-02T13:15:49.741Z,9.60
2023-02-02T13:18:20.645Z,7.13
2023-02-02T13:20:48.965Z,10.37
2023-02-02T13:23:16.094Z,9.30
2023-02-02T13:25:43.974Z,7.90
2023-02-02T13:28:07.670Z,8.77
2023-02-02T13:30:34.969Z,10.40
2023-02-02T13:33:01.974Z,8.70
2023-02-02T13:35:25.232Z,8.20
2023-02-02T13:38:00.132Z,6.53
2023-02-02T13:40:35.082Z,12.67
2023-02-02T13:42:57.812Z,13.23
2023-02-02T13:45:25.034Z,14.43
2023-02-02T13:47:54.165Z,7.50
2023-02-02T13:50:18.124Z,7.60
2023-02-02T13:53:02.190Z,9.77
2023-02-02T13:55:43.451Z,11.67
2023-02-02T13:58:14.252Z,8.33
2023-02-02T14:00:45.860Z,9.83
2023-02-02T14:03:23.450Z,11.90
2023-02-02T14:06:01.865Z,8.70
2023-02-02T14:08:25.430Z,12.63
2023-02-02T14:11:04.609Z,8.27
2023-02-02T14:13:48.119Z,8.10
2023-02-02T14:16:30.085Z,7.73
2023-02-02T14:18:56.914Z,9.50
2023-02-02T14:21:34.498Z,8.43
2023-02-02T14:23:57.913Z,8.93
2023-02-02T14:26:41.691Z,9.77
2023-02-02T14:29:04.235Z,5.90
2023-02-02T14:31:31.776Z,8.70
2023-02-02T14:34:14.104Z,8.90
2023-02-02T14:36:40.131Z,10.67
2023-02-02T14:39:09.829Z,7.60
2023-02-02T14:41:54.576Z,7.60
2023-02-02T14:44:19.699Z,9.53
2023-02-02T14:46:48.496Z,8.83
2023-02-02T14:49:14.831Z,11.20
2023-02-02T14:51:46.721Z,8.37
2023-02-02T14:54:18.760Z,7.53
2023-02-02T14:57:01.455Z,10.83
2023-02-02T14:59:25.953Z,11.27
2023-02-02T15:02:01.981Z,7.43
2023-02-02T15:04:27.621Z,7.63
2023-02-02T15:06:52.440Z,13.10
2023-02-02T15:09:21.023Z,8.93
2023-02-02T15:12:02.133Z,9.23
2023-02-02T15:14:26.169Z,8.97
2023-02-02T15:16:48.498Z,7.00
2023-02-02T15:19:23.527Z,10.23
2023-02-02T15:21:47.064Z,5.40
2023-02-02T15:24:18.840Z,10.13
2023-02-02T15:26:42.973Z,9.30
2023-02-02T15:29:14.515Z,11.47
2023-02-02T15:31:47.590Z,9.00
2023-02-02T15:34:37.660Z,5.90
2023-02-02T15:37:03.180Z,9.43
2023-02-02T15:39:28.570Z,11.77
2023-02-02T15:42:11.382Z,8.47
2023-02-02T15:44:38.914Z,11.97
2023-02-02T15:47:01.780Z,10.77
2023-02-02T15:49:36.091Z,6.97
2023-02-02T15:51:59.873Z,11.87
2023-02-02T15:54:36.239Z,12.87
2023-02-02T15:57:22.219Z,14.33
2023-02-02T15:59:46.125Z,11.03
2023-02-02T16:02:09.739Z,8.13
2023-02-02T16:04:37.437Z,7.47
2023-02-02T16:07:02.209Z,16.43
2023-02-02T16:09:28.924Z,11.07
2023-02-02T16:11:52.215Z,9.17
2023-02-02T16:14:19.049Z,13.00
2023-02-02T16:16:42.422Z,8.97
2023-02-02T16:19:22.369Z,8.77
2023-02-02T16:21:52.326Z,7.43
2023-02-02T16:24:40.752Z,10.87
2023-02-02T16:27:06.325Z,9.07
2023-02-02T16:29:30.469Z,7.03
2023-02-02T16:31:52.905Z,13.20
2023-02-02T16:34:17.043Z,8.03
2023-02-02T16:36:39.492Z,8.43
2023-02-02T16:39:01.907Z,14.87
2023-02-02T16:41:28.959Z,7.23
2023-02-02T16:44:00.946Z,5.80
2023-02-02T16:46:44.154Z,7.00
2023-02-02T16:49:17.971Z,6.30
2023-02-02T16:51:40.601Z,11.43
2023-02-02T16:54:14.225Z,12.40
2023-02-02T16:56:40.628Z,8.03
2023-02-02T16:59:06.350Z,9.43
2023-02-02T17:01:43.015Z,7.87
2023-02-02T17:04:06.889Z,7.70
2023-02-02T17:06:45.820Z,12.70
2023-02-02T17:09:26.921Z,10.20
2023-02-02T17:12:36.754Z,8.27
2023-02-02T17:15:08.495Z,10.20
2023-02-02T17:17:33.803Z,8.17
2023-02-02T17:19:56.282Z,8.33
2023-02-02T17:22:20.867Z,10.20
2023-02-02T17:24:45.404Z,17.03
2023-02-02T17:27:12.258Z,9.40
2023-02-02T17:29:35.517Z,10.93
2023-02-02T17:32:00.694Z,13.03
2023-02-02T17:34:26.509Z,12.53
2023-02-02T17:36:48.906Z,11.90
2023-02-02T17:39:18.463Z,9.67
2023-02-02T17:41:40.804Z,9.10
2023-02-02T17:44:06.405Z,10.27
2023-02-02T17:46:30.962Z,5.10
2023-02-02T17:48:53.440Z,9.87
2023-02-02T17:51:16.630Z,10.13
2023-02-02T17:53:39.025Z,6.73
2023-02-02T17:56:01.260Z,9.77
2023-02-02T18:01:04.486Z,10.87
2023-02-02T18:03:28.158Z,7.57
2023-02-02T18:05:50.901Z,8.00
2023-02-02T18:08:13.569Z,7.90
2023-02-02T18:10:37.875Z,12.07
2023-02-02T18:13:00.282Z,11.17
2023-02-02T18:15:22.701Z,8.20
2023-02-02T18:17:45.213Z,9.93
2023-02-02T18:20:10.347Z,6.70
2023-02-02T18:22:33.601Z,5.87
2023-02-02T18:24:56.545Z,12.00
2023-02-02T18:27:20.462Z,9.50
2023-02-02T18:29:43.069Z,7.77
2023-02-02T18:32:05.618Z,8.43
2023-02-02T18:34:31.908Z,7.57
2023-02-02T18:36:55.015Z,7.47
2023-02-02T18:39:17.434Z,11.17
2023-02-02T18:41:39.662Z,7.07
2023-02-02T18:44:01.996Z,11.27
2023-02-02T18:46:24.566Z,10.53
2023-02-02T18:48:47.188Z,7.00
2023-02-02T18:51:14.847Z,10.40
2023-02-02T18:53:40.366Z,5.23
2023-02-02T18:56:12.798Z,4.37
2023-02-02T18:58:35.789Z,7.53
2023-02-02T19:00:58.206Z,6.43
2023-02-02T19:03:20.685Z,9.23
2023-02-02T19:06:02.951Z,6.63
2023-02-02T19:08:25.454Z,7.10
2023-02-02T19:10:47.869Z,6.23
2023-02-02T19:13:10.693Z,7.70
2023-02-02T19:15:38.721Z,8.63
2023-02-02T19:18:01.920Z,8.90
2023-02-02T19:20:26.086Z,10.30
2023-02-02T19:22:48.609Z,6.37
2023-02-02T19:25:12.196Z,8.73
2023-02-02T19:27:36.290Z,8.83
2023-02-02T19:30:01.451Z,8.03
2023-02-02T19:32:25.861Z,10.37
2023-02-02T19:34:58.656Z,9.50
2023-02-02T19:37:29.218Z,12.53
2023-02-02T19:39:51.968Z,10.27
2023-02-02T19:42:14.331Z,8.80
2023-02-02T19:44:38.857Z,7.63
2023-02-02T19:47:02.766Z,9.33
2023-02-02T19:49:31.700Z,11.77
2023-02-02T19:51:55.644Z,10.87
2023-02-02T19:54:42.060Z,11.70
2023-02-02T19:57:16.363Z,12.23
2023-02-02T19:59:40.065Z,14.77
2023-02-02T20:02:21.954Z,15.07
2023-02-02T20:04:50.337Z,10.77
2023-02-02T20:07:14.796Z,13.27
2023-02-02T20:09:44.247Z,11.67
2023-02-02T20:12:22.748Z,14.23
2023-02-02T20:14:52.403Z,14.87
2023-02-02T20:17:21.542Z,12.57
2023-02-02T20:19:45.781Z,11.17
2023-02-02T20:22:32.939Z,19.30
2023-02-02T20:24:57.125Z,14.17
2023-02-02T20:27:20.959Z,13.63
2023-02-02T20:29:47.994Z,10.13
2023-02-02T20:32:22.039Z,10.90
2023-02-02T20:34:46.013Z,11.43
2023-02-02T20:37:14.481Z,14.43
2023-02-02T20:39:40.122Z,14.33
2023-02-02T20:42:03.022Z,11.53
2023-02-02T20:44:26.753Z,14.40
2023-02-02T20:46:49.163Z,12.83
2023-02-02T20:49:11.615Z,15.00
2023-02-02T20:51:33.911Z,17.33
2023-02-02T20:53:56.523Z,20.60
2023-02-02T20:56:19.235Z,15.67
2023-02-02T20:58:42.252Z,14.23
2023-02-02T21:01:06.891Z,13.60
2023-02-02T21:03:29.241Z,12.77
2023-02-02T21:06:10.601Z,16.83
2023-02-02T21:08:33.643Z,13.13
2023-02-02T21:10:55.949Z,15.00
2023-02-02T21:13:19.467Z,10.50
2023-02-02T21:15:41.671Z,15.90
2023-02-02T21:18:04.525Z,15.70
2023-02-02T21:20:33.004Z,16.33
2023-02-02T21:22:56.777Z,11.83
2023-02-02T21:25:19.402Z,13.50
2023-02-02T21:27:51.166Z,14.63
2023-02-02T21:30:14.326Z,11.83
2023-02-02T21:32:36.681Z,13.30
2023-02-02T21:34:59.071Z,14.07
2023-02-02T21:37:21.421Z,10.83
2023-02-02T21:39:48.770Z,14.90
2023-02-02T21:42:16.645Z,15.07
2023-02-02T21:44:40.848Z,10.97
2023-02-02T21:47:03.087Z,13.03
2023-02-02T21:49:26.599Z,14.13
2023-02-02T21:51:49.809Z,10.23
2023-02-02T21:54:29.330Z,10.07
2023-02-02T21:56:52.205Z,12.53
2023-02-02T21:59:19.146Z,10.10
2023-02-02T22:01:42.096Z,9.63
2023-02-02T22:04:04.914Z,13.87
2023-02-02T22:06:34.348Z,11.40
2023-02-02T22:09:01.452Z,8.93
2023-02-02T22:11:23.817Z,8.97
2023-02-02T22:13:46.124Z,10.10
2023-02-02T22:16:14.445Z,8.87
2023-02-02T22:18:39.877Z,11.17
2023-02-02T22:21:02.142Z,10.87
2023-02-02T22:23:25.515Z,10.80
2023-02-02T22:25:48.350Z,13.80
2023-02-02T22:28:24.475Z,8.00
2023-02-02T22:30:47.014Z,7.70
2023-02-02T22:33:14.234Z,7.83
2023-02-02T22:35:49.871Z,7.80
2023-02-02T22:38:16.302Z,6.87
2023-02-02T22:40:38.845Z,7.10
2023-02-02T22:43:02.506Z,6.73
2023-02-02T22:45:25.212Z,6.57
2023-02-02T22:47:48.312Z,6.40
2023-02-02T22:50:10.980Z,5.53
2023-02-02T22:52:33.497Z,5.80
2023-02-02T22:54:55.710Z,5.93
2023-02-02T22:57:18.056Z,5.50
2023-02-02T22:59:40.740Z,6.47
2023-02-02T23:02:03.049Z,5.03
2023-02-02T23:04:25.569Z,5.40
2023-02-02T23:06:48.342Z,4.60
2023-02-02T23:09:10.628Z,4.50
2023-02-02T23:11:32.859Z,7.93
2023-02-02T23:13:55.542Z,4.20
2023-02-02T23:16:26.837Z,4.63
2023-02-02T23:18:49.198Z,4.43
2023-02-02T23:21:11.639Z,4.80
2023-02-02T23:23:34.073Z,4.33
2023-02-02T23:26:00.217Z,4.97
2023-02-02T23:28:25.423Z,5.97
2023-02-02T23:30:48.097Z,5.67
2023-02-02T23:33:11.033Z,6.90
2023-02-02T23:35:33.531Z,6.63
2023-02-02T23:37:56.085Z,6.90
2023-02-02T23:40:19.894Z,5.73
2023-02-02T23:42:42.314Z,5.47
2023-02-02T23:45:04.814Z,6.13
2023-02-02T23:47:42.304Z,6.37
2023-02-02T23:50:06.000Z,5.90
2023-02-02T23:52:28.463Z,6.40
2023-02-02T23:54:52.742Z,6.00
2023-02-02T23:57:15.249Z,6.50
2023-02-02T23:59:37.803Z,6.23
